sensor_id;sensor_type;location;lat;lon;timestamp;P1;durP1;ratioP1;P2;durP2;ratioP2
19251;SDS011;9760;50.944;5.304;2023-04-04T00:00:02;5.60;;;1.63;;
19251;SDS011;9760;50.944;5.304;2023-04-04T00:02:28;4.90;;;2.10;;
19251;SDS011;9760;50.944;5.304;2023-04-04T00:04:54;5.80;;;2.07;;
19251;SDS011;9760;50.944;5.304;2023-04-04T00:07:20;4.27;;;1.80;;
19251;SDS011;9760;50.944;5.304;2023-04-04T00:09:46;5.97;;;1.43;;
19251;SDS011;9760;50.944;5.304;2023-04-04T00:12:12;5.00;;;1.47;;
19251;SDS011;9760;50.944;5.304;2023-04-04T00:14:37;4.13;;;1.70;;
19251;SDS011;9760;50.944;5.304;2023-04-04T00:17:03;6.77;;;1.80;;
19251;SDS011;9760;50.944;5.304;2023-04-04T00:19:29;6.43;;;1.90;;
19251;SDS011;9760;50.944;5.304;2023-04-04T00:21:55;4.30;;;1.40;;
19251;SDS011;9760;50.944;5.304;2023-04-04T00:24:21;5.60;;;2.00;;
19251;SDS011;9760;50.944;5.304;2023-04-04T00:26:47;5.53;;;1.47;;
19251;SDS011;9760;50.944;5.304;2023-04-04T00:29:12;4.10;;;1.50;;
19251;SDS011;9760;50.944;5.304;2023-04-04T00:31:39;5.10;;;1.57;;
19251;SDS011;9760;50.944;5.304;2023-04-04T00:34:05;7.60;;;1.70;;
19251;SDS011;9760;50.944;5.304;2023-04-04T00:36:30;4.23;;;1.37;;
19251;SDS011;9760;50.944;5.304;2023-04-04T00:38:56;7.10;;;1.90;;
19251;SDS011;9760;50.944;5.304;2023-04-04T00:41:22;7.37;;;1.90;;
19251;SDS011;9760;50.944;5.304;2023-04-04T00:43:47;5.40;;;1.80;;
19251;SDS011;9760;50.944;5.304;2023-04-04T00:46:13;9.93;;;2.30;;
19251;SDS011;9760;50.944;5.304;2023-04-04T00:48:41;5.23;;;1.50;;
19251;SDS011;9760;50.944;5.304;2023-04-04T00:51:07;5.00;;;1.90;;
19251;SDS011;9760;50.944;5.304;2023-04-04T00:53:33;4.00;;;1.50;;
19251;SDS011;9760;50.944;5.304;2023-04-04T00:55:58;2.63;;;1.47;;
19251;SDS011;9760;50.944;5.304;2023-04-04T00:58:24;5.50;;;1.87;;
19251;SDS011;9760;50.944;5.304;2023-04-04T01:00:51;4.77;;;1.77;;
19251;SDS011;9760;50.944;5.304;2023-04-04T01:03:17;3.43;;;1.87;;
19251;SDS011;9760;50.944;5.304;2023-04-04T01:05:43;5.00;;;1.83;;
19251;SDS011;9760;50.944;5.304;2023-04-04T01:08:09;5.40;;;1.80;;
19251;SDS011;9760;50.944;5.304;2023-04-04T01:10:35;4.47;;;2.00;;
19251;SDS011;9760;50.944;5.304;2023-04-04T01:13:02;9.87;;;2.30;;
19251;SDS011;9760;50.944;5.304;2023-04-04T01:15:29;5.23;;;1.80;;
19251;SDS011;9760;50.944;5.304;2023-04-04T01:17:59;4.17;;;2.10;;
19251;SDS011;9760;50.944;5.304;2023-04-04T01:20:28;6.50;;;1.70;;
19251;SDS011;9760;50.944;5.304;2023-04-04T01:22:56;4.67;;;2.03;;
19251;SDS011;9760;50.944;5.304;2023-04-04T01:25:30;8.53;;;3.43;;
19251;SDS011;9760;50.944;5.304;2023-04-04T01:27:57;6.83;;;2.20;;
19251;SDS011;9760;50.944;5.304;2023-04-04T01:30:24;6.43;;;2.50;;
19251;SDS011;9760;50.944;5.304;2023-04-04T01:33:00;10.03;;;2.10;;
19251;SDS011;9760;50.944;5.304;2023-04-04T01:35:42;6.23;;;2.00;;
19251;SDS011;9760;50.944;5.304;2023-04-04T01:38:34;4.27;;;2.03;;
19251;SDS011;9760;50.944;5.304;2023-04-04T01:41:05;9.43;;;2.20;;
19251;SDS011;9760;50.944;5.304;2023-04-04T01:43:33;5.37;;;1.87;;
19251;SDS011;9760;50.944;5.304;2023-04-04T01:45:59;8.17;;;2.97;;
19251;SDS011;9760;50.944;5.304;2023-04-04T01:48:25;8.00;;;2.80;;
19251;SDS011;9760;50.944;5.304;2023-04-04T01:50:51;10.10;;;3.77;;
19251;SDS011;9760;50.944;5.304;2023-04-04T01:53:17;11.60;;;3.20;;
19251;SDS011;9760;50.944;5.304;2023-04-04T01:55:42;13.67;;;3.20;;
19251;SDS011;9760;50.944;5.304;2023-04-04T01:58:08;11.93;;;3.43;;
19251;SDS011;9760;50.944;5.304;2023-04-04T02:00:34;8.40;;;3.13;;
19251;SDS011;9760;50.944;5.304;2023-04-04T02:03:00;8.60;;;2.43;;
19251;SDS011;9760;50.944;5.304;2023-04-04T02:05:26;9.00;;;2.53;;
19251;SDS011;9760;50.944;5.304;2023-04-04T02:07:52;6.57;;;2.70;;
19251;SDS011;9760;50.944;5.304;2023-04-04T02:10:17;8.97;;;1.97;;
19251;SDS011;9760;50.944;5.304;2023-04-04T02:12:43;16.50;;;2.40;;
19251;SDS011;9760;50.944;5.304;2023-04-04T02:15:10;7.37;;;2.03;;
19251;SDS011;9760;50.944;5.304;2023-04-04T02:17:35;7.73;;;2.40;;
19251;SDS011;9760;50.944;5.304;2023-04-04T02:20:01;6.93;;;2.00;;
19251;SDS011;9760;50.944;5.304;2023-04-04T02:22:27;6.73;;;2.40;;
19251;SDS011;9760;50.944;5.304;2023-04-04T02:24:53;5.40;;;2.40;;
19251;SDS011;9760;50.944;5.304;2023-04-04T02:27:21;4.07;;;2.00;;
19251;SDS011;9760;50.944;5.304;2023-04-04T02:29:47;10.30;;;2.50;;
19251;SDS011;9760;50.944;5.304;2023-04-04T02:32:13;8.03;;;2.47;;
19251;SDS011;9760;50.944;5.304;2023-04-04T02:34:39;6.43;;;2.57;;
19251;SDS011;9760;50.944;5.304;2023-04-04T02:37:04;5.90;;;2.40;;
19251;SDS011;9760;50.944;5.304;2023-04-04T02:39:30;7.67;;;2.33;;
19251;SDS011;9760;50.944;5.304;2023-04-04T02:41:55;10.10;;;2.57;;
19251;SDS011;9760;50.944;5.304;2023-04-04T02:44:21;5.10;;;2.27;;
19251;SDS011;9760;50.944;5.304;2023-04-04T02:46:47;5.77;;;2.20;;
19251;SDS011;9760;50.944;5.304;2023-04-04T02:49:13;8.67;;;2.43;;
19251;SDS011;9760;50.944;5.304;2023-04-04T02:51:39;5.23;;;2.00;;
19251;SDS011;9760;50.944;5.304;2023-04-04T02:54:05;5.53;;;2.00;;
19251;SDS011;9760;50.944;5.304;2023-04-04T02:56:31;5.97;;;2.20;;
19251;SDS011;9760;50.944;5.304;2023-04-04T02:58:56;7.10;;;2.43;;
19251;SDS011;9760;50.944;5.304;2023-04-04T03:01:22;6.17;;;2.00;;
19251;SDS011;9760;50.944;5.304;2023-04-04T03:03:48;7.13;;;2.30;;
19251;SDS011;9760;50.944;5.304;2023-04-04T03:06:13;8.10;;;1.93;;
19251;SDS011;9760;50.944;5.304;2023-04-04T03:08:39;7.07;;;1.80;;
19251;SDS011;9760;50.944;5.304;2023-04-04T03:11:04;6.07;;;2.03;;
19251;SDS011;9760;50.944;5.304;2023-04-04T03:13:30;6.20;;;2.73;;
19251;SDS011;9760;50.944;5.304;2023-04-04T03:16:02;6.37;;;2.10;;
19251;SDS011;9760;50.944;5.304;2023-04-04T03:18:30;6.47;;;2.03;;
19251;SDS011;9760;50.944;5.304;2023-04-04T03:20:57;4.97;;;2.27;;
19251;SDS011;9760;50.944;5.304;2023-04-04T03:23:23;6.73;;;2.33;;
19251;SDS011;9760;50.944;5.304;2023-04-04T03:25:48;8.53;;;2.43;;
19251;SDS011;9760;50.944;5.304;2023-04-04T03:28:14;6.00;;;2.43;;
19251;SDS011;9760;50.944;5.304;2023-04-04T03:30:40;4.70;;;2.20;;
19251;SDS011;9760;50.944;5.304;2023-04-04T03:33:06;10.40;;;2.67;;
19251;SDS011;9760;50.944;5.304;2023-04-04T03:35:39;5.43;;;1.90;;
19251;SDS011;9760;50.944;5.304;2023-04-04T03:38:06;6.97;;;2.03;;
19251;SDS011;9760;50.944;5.304;2023-04-04T03:40:32;5.30;;;2.27;;
19251;SDS011;9760;50.944;5.304;2023-04-04T03:42:58;6.80;;;2.20;;
19251;SDS011;9760;50.944;5.304;2023-04-04T03:45:26;6.93;;;1.93;;
19251;SDS011;9760;50.944;5.304;2023-04-04T03:47:52;9.07;;;2.87;;
19251;SDS011;9760;50.944;5.304;2023-04-04T03:50:18;10.10;;;2.60;;
19251;SDS011;9760;50.944;5.304;2023-04-04T03:52:44;7.40;;;2.40;;
19251;SDS011;9760;50.944;5.304;2023-04-04T03:55:11;5.97;;;2.53;;
19251;SDS011;9760;50.944;5.304;2023-04-04T03:57:37;11.30;;;2.70;;
19251;SDS011;9760;50.944;5.304;2023-04-04T04:00:03;9.53;;;2.80;;
19251;SDS011;9760;50.944;5.304;2023-04-04T04:02:29;8.63;;;2.67;;
19251;SDS011;9760;50.944;5.304;2023-04-04T04:04:54;11.47;;;3.03;;
19251;SDS011;9760;50.944;5.304;2023-04-04T04:07:20;4.57;;;2.33;;
19251;SDS011;9760;50.944;5.304;2023-04-04T04:09:46;11.33;;;2.77;;
19251;SDS011;9760;50.944;5.304;2023-04-04T04:12:11;8.63;;;2.50;;
19251;SDS011;9760;50.944;5.304;2023-04-04T04:14:37;12.03;;;2.70;;
19251;SDS011;9760;50.944;5.304;2023-04-04T04:17:02;7.57;;;2.20;;
19251;SDS011;9760;50.944;5.304;2023-04-04T04:19:28;7.60;;;2.70;;
19251;SDS011;9760;50.944;5.304;2023-04-04T04:21:54;10.73;;;2.47;;
19251;SDS011;9760;50.944;5.304;2023-04-04T04:24:19;9.00;;;2.70;;
19251;SDS011;9760;50.944;5.304;2023-04-04T04:26:45;13.07;;;2.63;;
19251;SDS011;9760;50.944;5.304;2023-04-04T04:29:11;6.43;;;3.00;;
19251;SDS011;9760;50.944;5.304;2023-04-04T04:31:36;8.10;;;2.80;;
19251;SDS011;9760;50.944;5.304;2023-04-04T04:34:06;4.87;;;2.07;;
19251;SDS011;9760;50.944;5.304;2023-04-04T04:36:32;16.30;;;2.83;;
19251;SDS011;9760;50.944;5.304;2023-04-04T04:38:59;8.83;;;2.50;;
19251;SDS011;9760;50.944;5.304;2023-04-04T04:41:24;8.40;;;2.80;;
19251;SDS011;9760;50.944;5.304;2023-04-04T04:43:50;10.50;;;3.10;;
19251;SDS011;9760;50.944;5.304;2023-04-04T04:46:16;14.70;;;3.00;;
19251;SDS011;9760;50.944;5.304;2023-04-04T04:48:42;11.93;;;3.47;;
19251;SDS011;9760;50.944;5.304;2023-04-04T04:51:08;9.67;;;3.27;;
19251;SDS011;9760;50.944;5.304;2023-04-04T04:53:34;8.93;;;3.37;;
19251;SDS011;9760;50.944;5.304;2023-04-04T04:56:00;7.77;;;3.33;;
19251;SDS011;9760;50.944;5.304;2023-04-04T04:58:25;9.73;;;2.93;;
19251;SDS011;9760;50.944;5.304;2023-04-04T05:00:54;10.77;;;2.93;;
19251;SDS011;9760;50.944;5.304;2023-04-04T05:03:21;8.03;;;2.60;;
19251;SDS011;9760;50.944;5.304;2023-04-04T05:05:47;10.63;;;3.13;;
19251;SDS011;9760;50.944;5.304;2023-04-04T05:08:13;8.87;;;3.10;;
19251;SDS011;9760;50.944;5.304;2023-04-04T05:10:39;7.30;;;2.80;;
19251;SDS011;9760;50.944;5.304;2023-04-04T05:13:05;9.20;;;3.27;;
19251;SDS011;9760;50.944;5.304;2023-04-04T05:15:31;7.70;;;2.83;;
19251;SDS011;9760;50.944;5.304;2023-04-04T05:17:57;5.53;;;2.57;;
19251;SDS011;9760;50.944;5.304;2023-04-04T05:20:23;9.40;;;3.00;;
19251;SDS011;9760;50.944;5.304;2023-04-04T05:22:48;13.63;;;3.43;;
19251;SDS011;9760;50.944;5.304;2023-04-04T05:25:14;7.90;;;3.13;;
19251;SDS011;9760;50.944;5.304;2023-04-04T05:27:40;13.07;;;3.30;;
19251;SDS011;9760;50.944;5.304;2023-04-04T05:30:06;11.93;;;3.13;;
19251;SDS011;9760;50.944;5.304;2023-04-04T05:32:33;9.73;;;2.90;;
19251;SDS011;9760;50.944;5.304;2023-04-04T05:34:59;13.57;;;3.03;;
19251;SDS011;9760;50.944;5.304;2023-04-04T05:37:25;12.23;;;3.10;;
19251;SDS011;9760;50.944;5.304;2023-04-04T05:39:52;8.60;;;2.80;;
19251;SDS011;9760;50.944;5.304;2023-04-04T05:42:19;9.67;;;2.90;;
19251;SDS011;9760;50.944;5.304;2023-04-04T05:44:45;10.53;;;3.43;;
19251;SDS011;9760;50.944;5.304;2023-04-04T05:47:11;8.07;;;2.93;;
19251;SDS011;9760;50.944;5.304;2023-04-04T05:49:37;10.87;;;3.90;;
19251;SDS011;9760;50.944;5.304;2023-04-04T05:52:02;16.03;;;4.90;;
19251;SDS011;9760;50.944;5.304;2023-04-04T05:54:28;14.27;;;4.90;;
19251;SDS011;9760;50.944;5.304;2023-04-04T05:56:54;11.83;;;4.17;;
19251;SDS011;9760;50.944;5.304;2023-04-04T05:59:20;9.60;;;4.40;;
19251;SDS011;9760;50.944;5.304;2023-04-04T06:01:46;11.03;;;4.10;;
19251;SDS011;9760;50.944;5.304;2023-04-04T06:04:11;10.70;;;3.80;;
19251;SDS011;9760;50.944;5.304;2023-04-04T06:06:37;6.63;;;3.27;;
19251;SDS011;9760;50.944;5.304;2023-04-04T06:09:03;8.47;;;3.43;;
19251;SDS011;9760;50.944;5.304;2023-04-04T06:11:28;11.13;;;2.97;;
19251;SDS011;9760;50.944;5.304;2023-04-04T06:13:54;9.13;;;3.17;;
19251;SDS011;9760;50.944;5.304;2023-04-04T06:16:20;19.10;;;4.23;;
19251;SDS011;9760;50.944;5.304;2023-04-04T06:18:46;8.27;;;3.37;;
19251;SDS011;9760;50.944;5.304;2023-04-04T06:21:12;12.40;;;3.30;;
19251;SDS011;9760;50.944;5.304;2023-04-04T06:23:38;7.77;;;3.70;;
19251;SDS011;9760;50.944;5.304;2023-04-04T06:26:04;21.20;;;4.50;;
19251;SDS011;9760;50.944;5.304;2023-04-04T06:28:30;9.20;;;3.20;;
19251;SDS011;9760;50.944;5.304;2023-04-04T06:30:56;7.70;;;3.17;;
19251;SDS011;9760;50.944;5.304;2023-04-04T06:33:22;14.80;;;4.20;;
19251;SDS011;9760;50.944;5.304;2023-04-04T06:35:47;7.23;;;3.50;;
19251;SDS011;9760;50.944;5.304;2023-04-04T06:38:13;10.53;;;3.13;;
19251;SDS011;9760;50.944;5.304;2023-04-04T06:40:39;12.07;;;3.53;;
19251;SDS011;9760;50.944;5.304;2023-04-04T06:43:04;13.33;;;3.20;;
19251;SDS011;9760;50.944;5.304;2023-04-04T06:45:30;10.67;;;3.27;;
19251;SDS011;9760;50.944;5.304;2023-04-04T06:47:57;8.93;;;3.20;;
19251;SDS011;9760;50.944;5.304;2023-04-04T06:50:23;11.73;;;2.90;;
19251;SDS011;9760;50.944;5.304;2023-04-04T06:52:49;19.93;;;3.27;;
19251;SDS011;9760;50.944;5.304;2023-04-04T06:55:16;8.70;;;2.93;;
19251;SDS011;9760;50.944;5.304;2023-04-04T06:57:42;5.07;;;2.70;;
19251;SDS011;9760;50.944;5.304;2023-04-04T07:00:08;5.60;;;2.53;;
19251;SDS011;9760;50.944;5.304;2023-04-04T07:02:34;10.50;;;3.27;;
19251;SDS011;9760;50.944;5.304;2023-04-04T07:05:00;9.03;;;3.10;;
19251;SDS011;9760;50.944;5.304;2023-04-04T07:07:28;7.57;;;3.00;;
19251;SDS011;9760;50.944;5.304;2023-04-04T07:09:56;10.20;;;3.10;;
19251;SDS011;9760;50.944;5.304;2023-04-04T07:12:22;10.60;;;2.70;;
19251;SDS011;9760;50.944;5.304;2023-04-04T07:14:47;14.23;;;3.00;;
19251;SDS011;9760;50.944;5.304;2023-04-04T07:17:13;7.40;;;2.70;;
19251;SDS011;9760;50.944;5.304;2023-04-04T07:19:39;8.27;;;2.77;;
19251;SDS011;9760;50.944;5.304;2023-04-04T07:22:04;10.70;;;2.43;;
19251;SDS011;9760;50.944;5.304;2023-04-04T07:24:30;11.93;;;2.73;;
19251;SDS011;9760;50.944;5.304;2023-04-04T07:26:56;7.03;;;2.70;;
19251;SDS011;9760;50.944;5.304;2023-04-04T07:29:21;6.00;;;2.50;;
19251;SDS011;9760;50.944;5.304;2023-04-04T07:31:47;5.93;;;2.30;;
19251;SDS011;9760;50.944;5.304;2023-04-04T07:34:13;4.90;;;2.17;;
19251;SDS011;9760;50.944;5.304;2023-04-04T07:36:39;5.03;;;2.13;;
19251;SDS011;9760;50.944;5.304;2023-04-04T07:39:04;6.77;;;2.20;;
19251;SDS011;9760;50.944;5.304;2023-04-04T07:41:31;5.27;;;1.80;;
19251;SDS011;9760;50.944;5.304;2023-04-04T07:43:57;6.03;;;2.10;;
19251;SDS011;9760;50.944;5.304;2023-04-04T07:46:23;9.87;;;1.97;;
19251;SDS011;9760;50.944;5.304;2023-04-04T07:48:48;4.50;;;1.77;;
19251;SDS011;9760;50.944;5.304;2023-04-04T07:51:14;8.57;;;2.27;;
19251;SDS011;9760;50.944;5.304;2023-04-04T07:53:40;3.63;;;1.63;;
19251;SDS011;9760;50.944;5.304;2023-04-04T07:56:06;6.50;;;2.00;;
19251;SDS011;9760;50.944;5.304;2023-04-04T07:58:32;3.87;;;2.23;;
19251;SDS011;9760;50.944;5.304;2023-04-04T08:00:59;7.03;;;1.97;;
19251;SDS011;9760;50.944;5.304;2023-04-04T08:03:25;6.40;;;2.20;;
19251;SDS011;9760;50.944;5.304;2023-04-04T08:05:51;5.63;;;1.70;;
19251;SDS011;9760;50.944;5.304;2023-04-04T08:08:17;7.40;;;2.00;;
19251;SDS011;9760;50.944;5.304;2023-04-04T08:10:43;8.03;;;2.30;;
19251;SDS011;9760;50.944;5.304;2023-04-04T08:13:10;5.97;;;1.53;;
19251;SDS011;9760;50.944;5.304;2023-04-04T08:15:36;7.77;;;2.00;;
19251;SDS011;9760;50.944;5.304;2023-04-04T08:18:02;5.23;;;2.03;;
19251;SDS011;9760;50.944;5.304;2023-04-04T08:20:28;3.73;;;2.00;;
19251;SDS011;9760;50.944;5.304;2023-04-04T08:22:54;8.70;;;2.37;;
19251;SDS011;9760;50.944;5.304;2023-04-04T08:25:20;4.33;;;1.80;;
19251;SDS011;9760;50.944;5.304;2023-04-04T08:27:45;6.43;;;2.27;;
19251;SDS011;9760;50.944;5.304;2023-04-04T08:30:11;7.40;;;2.33;;
19251;SDS011;9760;50.944;5.304;2023-04-04T08:32:38;8.97;;;1.77;;
19251;SDS011;9760;50.944;5.304;2023-04-04T08:35:06;7.10;;;2.30;;
19251;SDS011;9760;50.944;5.304;2023-04-04T08:37:32;6.17;;;1.90;;
19251;SDS011;9760;50.944;5.304;2023-04-04T08:39:59;4.50;;;2.00;;
19251;SDS011;9760;50.944;5.304;2023-04-04T08:42:26;5.20;;;2.03;;
19251;SDS011;9760;50.944;5.304;2023-04-04T08:44:54;6.20;;;2.57;;
19251;SDS011;9760;50.944;5.304;2023-04-04T08:47:23;7.00;;;2.30;;
19251;SDS011;9760;50.944;5.304;2023-04-04T08:49:50;8.43;;;1.77;;
19251;SDS011;9760;50.944;5.304;2023-04-04T08:52:19;4.73;;;1.87;;
19251;SDS011;9760;50.944;5.304;2023-04-04T08:54:46;6.87;;;1.60;;
19251;SDS011;9760;50.944;5.304;2023-04-04T08:57:14;7.47;;;1.87;;
19251;SDS011;9760;50.944;5.304;2023-04-04T08:59:40;6.63;;;1.90;;
19251;SDS011;9760;50.944;5.304;2023-04-04T09:04:36;5.10;;;2.10;;
19251;SDS011;9760;50.944;5.304;2023-04-04T09:07:02;8.37;;;1.90;;
19251;SDS011;9760;50.944;5.304;2023-04-04T09:09:32;7.63;;;1.97;;
19251;SDS011;9760;50.944;5.304;2023-04-04T09:12:01;12.93;;;2.20;;
19251;SDS011;9760;50.944;5.304;2023-04-04T09:14:29;5.37;;;1.97;;
19251;SDS011;9760;50.944;5.304;2023-04-04T09:16:55;5.00;;;1.83;;
19251;SDS011;9760;50.944;5.304;2023-04-04T09:19:21;2.87;;;1.30;;
19251;SDS011;9760;50.944;5.304;2023-04-04T09:21:47;5.23;;;1.80;;
19251;SDS011;9760;50.944;5.304;2023-04-04T09:24:13;8.23;;;2.10;;
19251;SDS011;9760;50.944;5.304;2023-04-04T09:26:49;6.73;;;1.70;;
19251;SDS011;9760;50.944;5.304;2023-04-04T09:29:16;6.80;;;1.57;;
19251;SDS011;9760;50.944;5.304;2023-04-04T09:31:45;2.77;;;1.27;;
19251;SDS011;9760;50.944;5.304;2023-04-04T09:34:13;6.57;;;1.70;;
19251;SDS011;9760;50.944;5.304;2023-04-04T09:36:41;5.47;;;1.83;;
19251;SDS011;9760;50.944;5.304;2023-04-04T09:39:08;3.63;;;1.43;;
19251;SDS011;9760;50.944;5.304;2023-04-04T09:41:38;5.20;;;1.80;;
19251;SDS011;9760;50.944;5.304;2023-04-04T09:44:04;6.17;;;1.53;;
19251;SDS011;9760;50.944;5.304;2023-04-04T09:46:33;2.97;;;1.63;;
19251;SDS011;9760;50.944;5.304;2023-04-04T09:49:01;5.77;;;1.83;;
19251;SDS011;9760;50.944;5.304;2023-04-04T09:51:37;3.60;;;2.00;;
19251;SDS011;9760;50.944;5.304;2023-04-04T09:54:05;5.63;;;1.80;;
19251;SDS011;9760;50.944;5.304;2023-04-04T09:56:33;9.13;;;1.97;;
19251;SDS011;9760;50.944;5.304;2023-04-04T09:58:59;5.20;;;1.87;;
19251;SDS011;9760;50.944;5.304;2023-04-04T10:01:26;5.03;;;1.60;;
19251;SDS011;9760;50.944;5.304;2023-04-04T10:03:53;6.10;;;1.97;;
19251;SDS011;9760;50.944;5.304;2023-04-04T10:06:20;4.23;;;2.10;;
19251;SDS011;9760;50.944;5.304;2023-04-04T10:08:47;4.73;;;2.10;;
19251;SDS011;9760;50.944;5.304;2023-04-04T10:11:13;6.10;;;1.80;;
19251;SDS011;9760;50.944;5.304;2023-04-04T10:13:58;3.20;;;1.50;;
19251;SDS011;9760;50.944;5.304;2023-04-04T10:16:30;7.10;;;1.80;;
19251;SDS011;9760;50.944;5.304;2023-04-04T10:18:56;7.37;;;2.00;;
19251;SDS011;9760;50.944;5.304;2023-04-04T10:21:24;7.17;;;2.17;;
19251;SDS011;9760;50.944;5.304;2023-04-04T10:23:51;5.77;;;2.00;;
19251;SDS011;9760;50.944;5.304;2023-04-04T10:26:18;5.20;;;1.60;;
19251;SDS011;9760;50.944;5.304;2023-04-04T10:28:44;5.07;;;1.67;;
19251;SDS011;9760;50.944;5.304;2023-04-04T10:33:45;8.87;;;2.00;;
19251;SDS011;9760;50.944;5.304;2023-04-04T10:36:44;4.40;;;1.87;;
19251;SDS011;9760;50.944;5.304;2023-04-04T10:39:22;5.17;;;2.27;;
19251;SDS011;9760;50.944;5.304;2023-04-04T10:41:50;4.33;;;2.03;;
19251;SDS011;9760;50.944;5.304;2023-04-04T10:44:30;5.67;;;2.40;;
19251;SDS011;9760;50.944;5.304;2023-04-04T10:47:19;11.03;;;2.10;;
19251;SDS011;9760;50.944;5.304;2023-04-04T10:49:48;8.20;;;2.13;;
19251;SDS011;9760;50.944;5.304;2023-04-04T10:52:18;6.40;;;1.80;;
19251;SDS011;9760;50.944;5.304;2023-04-04T10:54:48;4.23;;;1.70;;
19251;SDS011;9760;50.944;5.304;2023-04-04T10:57:16;8.80;;;1.87;;
19251;SDS011;9760;50.944;5.304;2023-04-04T10:59:54;2.67;;;1.60;;
19251;SDS011;9760;50.944;5.304;2023-04-04T11:08:01;6.17;;;2.20;;
19251;SDS011;9760;50.944;5.304;2023-04-04T11:12:55;5.30;;;1.80;;
19251;SDS011;9760;50.944;5.304;2023-04-04T11:15:29;6.37;;;2.40;;
19251;SDS011;9760;50.944;5.304;2023-04-04T11:18:09;9.03;;;2.40;;
19251;SDS011;9760;50.944;5.304;2023-04-04T11:20:36;5.60;;;2.30;;
19251;SDS011;9760;50.944;5.304;2023-04-04T11:23:19;5.43;;;1.93;;
19251;SDS011;9760;50.944;5.304;2023-04-04T11:25:53;6.50;;;1.90;;
19251;SDS011;9760;50.944;5.304;2023-04-04T11:39:05;7.47;;;2.20;;
19251;SDS011;9760;50.944;5.304;2023-04-04T11:44:16;8.03;;;2.10;;
19251;SDS011;9760;50.944;5.304;2023-04-04T11:46:43;4.30;;;2.10;;
19251;SDS011;9760;50.944;5.304;2023-04-04T11:49:09;8.97;;;2.83;;
19251;SDS011;9760;50.944;5.304;2023-04-04T11:51:36;5.77;;;1.97;;
19251;SDS011;9760;50.944;5.304;2023-04-04T11:54:04;6.53;;;2.10;;
19251;SDS011;9760;50.944;5.304;2023-04-04T11:56:40;10.73;;;2.23;;
19251;SDS011;9760;50.944;5.304;2023-04-04T11:59:06;6.10;;;2.03;;
19251;SDS011;9760;50.944;5.304;2023-04-04T12:01:32;4.30;;;1.87;;
19251;SDS011;9760;50.944;5.304;2023-04-04T12:03:58;3.70;;;2.10;;
19251;SDS011;9760;50.944;5.304;2023-04-04T12:06:25;3.63;;;2.30;;
19251;SDS011;9760;50.944;5.304;2023-04-04T12:08:57;4.27;;;2.00;;
19251;SDS011;9760;50.944;5.304;2023-04-04T12:11:24;3.73;;;2.23;;
19251;SDS011;9760;50.944;5.304;2023-04-04T12:13:51;4.73;;;2.40;;
19251;SDS011;9760;50.944;5.304;2023-04-04T12:16:19;10.30;;;2.07;;
19251;SDS011;9760;50.944;5.304;2023-04-04T12:18:45;10.50;;;3.13;;
19251;SDS011;9760;50.944;5.304;2023-04-04T12:21:11;5.30;;;2.33;;
19251;SDS011;9760;50.944;5.304;2023-04-04T12:23:36;5.07;;;2.50;;
19251;SDS011;9760;50.944;5.304;2023-04-04T12:26:02;4.70;;;2.30;;
19251;SDS011;9760;50.944;5.304;2023-04-04T12:28:30;5.47;;;2.83;;
19251;SDS011;9760;50.944;5.304;2023-04-04T12:30:58;4.67;;;2.30;;
19251;SDS011;9760;50.944;5.304;2023-04-04T12:33:32;8.20;;;2.43;;
19251;SDS011;9760;50.944;5.304;2023-04-04T12:35:59;7.47;;;2.97;;
19251;SDS011;9760;50.944;5.304;2023-04-04T12:38:27;5.87;;;2.40;;
19251;SDS011;9760;50.944;5.304;2023-04-04T12:40:54;13.43;;;3.33;;
19251;SDS011;9760;50.944;5.304;2023-04-04T12:43:20;10.97;;;2.40;;
19251;SDS011;9760;50.944;5.304;2023-04-04T12:45:48;7.13;;;2.00;;
19251;SDS011;9760;50.944;5.304;2023-04-04T12:48:14;6.27;;;2.70;;
19251;SDS011;9760;50.944;5.304;2023-04-04T12:53:34;5.53;;;2.50;;
19251;SDS011;9760;50.944;5.304;2023-04-04T12:56:17;7.90;;;2.90;;
19251;SDS011;9760;50.944;5.304;2023-04-04T12:58:46;14.00;;;2.63;;
19251;SDS011;9760;50.944;5.304;2023-04-04T13:01:14;5.93;;;2.50;;
19251;SDS011;9760;50.944;5.304;2023-04-04T13:03:41;9.67;;;2.17;;
19251;SDS011;9760;50.944;5.304;2023-04-04T13:06:14;7.07;;;2.37;;
19251;SDS011;9760;50.944;5.304;2023-04-04T13:08:50;5.17;;;2.23;;
19251;SDS011;9760;50.944;5.304;2023-04-04T13:11:16;9.00;;;2.40;;
19251;SDS011;9760;50.944;5.304;2023-04-04T13:13:42;5.80;;;2.33;;
19251;SDS011;9760;50.944;5.304;2023-04-04T13:16:09;6.80;;;2.60;;
19251;SDS011;9760;50.944;5.304;2023-04-04T13:18:37;8.23;;;2.60;;
19251;SDS011;9760;50.944;5.304;2023-04-04T13:21:06;9.63;;;2.30;;
19251;SDS011;9760;50.944;5.304;2023-04-04T13:23:32;3.83;;;1.90;;
19251;SDS011;9760;50.944;5.304;2023-04-04T13:26:06;10.10;;;1.83;;
19251;SDS011;9760;50.944;5.304;2023-04-04T13:28:34;5.07;;;1.90;;
19251;SDS011;9760;50.944;5.304;2023-04-04T13:31:00;6.80;;;2.37;;
19251;SDS011;9760;50.944;5.304;2023-04-04T13:33:27;6.50;;;2.40;;
19251;SDS011;9760;50.944;5.304;2023-04-04T13:35:53;5.80;;;2.33;;
19251;SDS011;9760;50.944;5.304;2023-04-04T13:38:18;5.57;;;1.87;;
19251;SDS011;9760;50.944;5.304;2023-04-04T13:40:44;9.80;;;2.53;;
19251;SDS011;9760;50.944;5.304;2023-04-04T13:43:10;17.23;;;2.50;;
19251;SDS011;9760;50.944;5.304;2023-04-04T13:45:36;7.13;;;2.33;;
19251;SDS011;9760;50.944;5.304;2023-04-04T13:48:02;4.67;;;2.20;;
19251;SDS011;9760;50.944;5.304;2023-04-04T13:50:29;5.50;;;2.57;;
19251;SDS011;9760;50.944;5.304;2023-04-04T13:52:57;5.57;;;2.10;;
19251;SDS011;9760;50.944;5.304;2023-04-04T13:55:23;8.50;;;2.43;;
19251;SDS011;9760;50.944;5.304;2023-04-04T13:57:48;8.17;;;2.20;;
19251;SDS011;9760;50.944;5.304;2023-04-04T14:00:14;6.60;;;2.33;;
19251;SDS011;9760;50.944;5.304;2023-04-04T14:02:40;7.43;;;2.17;;
19251;SDS011;9760;50.944;5.304;2023-04-04T14:05:06;6.53;;;2.17;;
19251;SDS011;9760;50.944;5.304;2023-04-04T14:07:32;7.73;;;2.50;;
19251;SDS011;9760;50.944;5.304;2023-04-04T14:09:58;6.27;;;2.57;;
19251;SDS011;9760;50.944;5.304;2023-04-04T14:12:23;7.07;;;2.90;;
19251;SDS011;9760;50.944;5.304;2023-04-04T14:14:49;4.07;;;2.47;;
19251;SDS011;9760;50.944;5.304;2023-04-04T14:17:15;10.30;;;2.20;;
19251;SDS011;9760;50.944;5.304;2023-04-04T14:19:41;6.17;;;2.27;;
19251;SDS011;9760;50.944;5.304;2023-04-04T14:22:07;6.93;;;2.27;;
19251;SDS011;9760;50.944;5.304;2023-04-04T14:24:33;9.97;;;2.63;;
19251;SDS011;9760;50.944;5.304;2023-04-04T14:26:59;8.77;;;2.60;;
19251;SDS011;9760;50.944;5.304;2023-04-04T14:29:25;6.13;;;2.17;;
19251;SDS011;9760;50.944;5.304;2023-04-04T14:31:51;9.43;;;2.30;;
19251;SDS011;9760;50.944;5.304;2023-04-04T14:34:16;7.03;;;2.57;;
19251;SDS011;9760;50.944;5.304;2023-04-04T14:36:42;5.80;;;2.40;;
19251;SDS011;9760;50.944;5.304;2023-04-04T14:39:07;8.73;;;2.60;;
19251;SDS011;9760;50.944;5.304;2023-04-04T14:41:33;6.77;;;2.50;;
19251;SDS011;9760;50.944;5.304;2023-04-04T14:43:59;9.50;;;2.70;;
19251;SDS011;9760;50.944;5.304;2023-04-04T14:46:24;6.40;;;2.20;;
19251;SDS011;9760;50.944;5.304;2023-04-04T14:48:51;7.27;;;2.70;;
19251;SDS011;9760;50.944;5.304;2023-04-04T14:51:17;11.00;;;2.83;;
19251;SDS011;9760;50.944;5.304;2023-04-04T14:53:44;4.87;;;2.57;;
19251;SDS011;9760;50.944;5.304;2023-04-04T14:56:10;12.73;;;2.80;;
19251;SDS011;9760;50.944;5.304;2023-04-04T14:58:36;7.73;;;2.80;;
19251;SDS011;9760;50.944;5.304;2023-04-04T15:01:03;5.17;;;2.30;;
19251;SDS011;9760;50.944;5.304;2023-04-04T15:03:29;7.93;;;2.57;;
19251;SDS011;9760;50.944;5.304;2023-04-04T15:05:55;7.53;;;3.00;;
19251;SDS011;9760;50.944;5.304;2023-04-04T15:08:21;6.40;;;2.87;;
19251;SDS011;9760;50.944;5.304;2023-04-04T15:10:47;9.60;;;3.03;;
19251;SDS011;9760;50.944;5.304;2023-04-04T15:13:12;6.00;;;2.73;;
19251;SDS011;9760;50.944;5.304;2023-04-04T15:15:38;7.60;;;2.83;;
19251;SDS011;9760;50.944;5.304;2023-04-04T15:18:04;10.20;;;3.50;;
19251;SDS011;9760;50.944;5.304;2023-04-04T15:20:30;9.27;;;3.60;;
19251;SDS011;9760;50.944;5.304;2023-04-04T15:22:55;8.03;;;3.00;;
19251;SDS011;9760;50.944;5.304;2023-04-04T15:25:21;9.83;;;3.13;;